Brawley, California
Current Conditions -  °F | °C
As of 1:53 PM on Sunday 23 Nov 2014 (Local Time) from KIPL Reporting Station
Clear Clear  
Wind Chill: 77°   Ceiling: Unl
Heat Index: 77°   Visibility: 10mi
Dew Point: 12°   Wind: 18mph
Humidity: 8%   Direction: 20°NNE
Pressure: 30.11"   Gusts: NA
Location:  32.98°N, 115.53°W
Report Text: KIPL 232153Z AUTO 02016KT 10SM CLR 25/M11 A3011 RMK AO2 SLP196 T02501111
Loading
Personal Weather Stations






























Interactive Weather Map New forecast layout! Learn more

10-Day Weather Forecast

Advertisements
Track Severe Weather on mobile